sensor_id;sensor_type;location;lat;lon;timestamp;P1;durP1;ratioP1;P2;durP2;ratioP2
20525;SDS011;10421;49.142;9.232;2023-05-21T00:02:05;19.30;;;12.73;;
20525;SDS011;10421;49.142;9.232;2023-05-21T00:04:35;20.37;;;13.10;;
20525;SDS011;10421;49.142;9.232;2023-05-21T00:07:04;19.40;;;12.50;;
20525;SDS011;10421;49.142;9.232;2023-05-21T00:09:33;25.80;;;13.50;;
20525;SDS011;10421;49.142;9.232;2023-05-21T00:12:02;22.97;;;13.90;;
20525;SDS011;10421;49.142;9.232;2023-05-21T00:14:29;20.83;;;12.93;;
20525;SDS011;10421;49.142;9.232;2023-05-21T00:16:56;20.13;;;12.60;;
20525;SDS011;10421;49.142;9.232;2023-05-21T00:19:23;19.43;;;12.70;;
20525;SDS011;10421;49.142;9.232;2023-05-21T00:21:51;19.93;;;13.03;;
20525;SDS011;10421;49.142;9.232;2023-05-21T00:24:19;21.60;;;14.13;;
20525;SDS011;10421;49.142;9.232;2023-05-21T00:26:47;19.73;;;13.10;;
20525;SDS011;10421;49.142;9.232;2023-05-21T00:29:13;19.13;;;12.20;;
20525;SDS011;10421;49.142;9.232;2023-05-21T00:31:40;23.30;;;13.77;;
20525;SDS011;10421;49.142;9.232;2023-05-21T00:34:07;18.17;;;11.83;;
20525;SDS011;10421;49.142;9.232;2023-05-21T00:36:34;21.13;;;13.50;;
20525;SDS011;10421;49.142;9.232;2023-05-21T00:39:00;23.23;;;13.70;;
20525;SDS011;10421;49.142;9.232;2023-05-21T00:41:28;20.87;;;13.63;;
20525;SDS011;10421;49.142;9.232;2023-05-21T00:43:56;19.73;;;12.43;;
20525;SDS011;10421;49.142;9.232;2023-05-21T00:46:24;20.03;;;12.63;;
20525;SDS011;10421;49.142;9.232;2023-05-21T00:48:52;19.30;;;12.57;;
20525;SDS011;10421;49.142;9.232;2023-05-21T00:51:19;18.63;;;12.93;;
20525;SDS011;10421;49.142;9.232;2023-05-21T00:53:48;24.53;;;15.20;;
20525;SDS011;10421;49.142;9.232;2023-05-21T00:56:16;21.47;;;13.50;;
20525;SDS011;10421;49.142;9.232;2023-05-21T00:58:45;19.20;;;11.30;;
20525;SDS011;10421;49.142;9.232;2023-05-21T01:01:13;23.53;;;13.07;;
20525;SDS011;10421;49.142;9.232;2023-05-21T01:03:42;17.53;;;12.13;;
20525;SDS011;10421;49.142;9.232;2023-05-21T01:06:10;22.67;;;14.00;;
20525;SDS011;10421;49.142;9.232;2023-05-21T01:08:38;18.57;;;11.90;;
20525;SDS011;10421;49.142;9.232;2023-05-21T01:11:06;22.93;;;13.53;;
20525;SDS011;10421;49.142;9.232;2023-05-21T01:13:35;19.50;;;12.60;;
20525;SDS011;10421;49.142;9.232;2023-05-21T01:16:04;20.50;;;13.00;;
20525;SDS011;10421;49.142;9.232;2023-05-21T01:18:34;23.83;;;13.80;;
20525;SDS011;10421;49.142;9.232;2023-05-21T01:21:01;19.40;;;12.27;;
20525;SDS011;10421;49.142;9.232;2023-05-21T01:23:30;23.63;;;13.43;;
20525;SDS011;10421;49.142;9.232;2023-05-21T01:25:57;19.83;;;13.10;;
20525;SDS011;10421;49.142;9.232;2023-05-21T01:28:24;22.87;;;13.57;;
20525;SDS011;10421;49.142;9.232;2023-05-21T01:30:52;23.20;;;13.40;;
20525;SDS011;10421;49.142;9.232;2023-05-21T01:33:21;21.57;;;13.50;;
20525;SDS011;10421;49.142;9.232;2023-05-21T01:35:59;19.83;;;12.60;;
20525;SDS011;10421;49.142;9.232;2023-05-21T01:38:35;27.03;;;13.20;;
20525;SDS011;10421;49.142;9.232;2023-05-21T01:41:06;21.60;;;12.73;;
20525;SDS011;10421;49.142;9.232;2023-05-21T01:43:38;21.87;;;13.10;;
20525;SDS011;10421;49.142;9.232;2023-05-21T01:46:06;22.37;;;12.47;;
20525;SDS011;10421;49.142;9.232;2023-05-21T01:48:35;24.70;;;13.50;;
20525;SDS011;10421;49.142;9.232;2023-05-21T01:51:04;22.87;;;13.20;;
20525;SDS011;10421;49.142;9.232;2023-05-21T01:53:31;18.93;;;12.50;;
20525;SDS011;10421;49.142;9.232;2023-05-21T01:55:59;24.33;;;12.80;;
20525;SDS011;10421;49.142;9.232;2023-05-21T01:58:26;24.17;;;13.70;;
20525;SDS011;10421;49.142;9.232;2023-05-21T02:00:53;21.30;;;12.93;;
20525;SDS011;10421;49.142;9.232;2023-05-21T02:03:21;21.73;;;12.90;;
20525;SDS011;10421;49.142;9.232;2023-05-21T02:05:50;20.27;;;12.97;;
20525;SDS011;10421;49.142;9.232;2023-05-21T02:08:17;20.60;;;13.17;;
20525;SDS011;10421;49.142;9.232;2023-05-21T02:10:44;21.13;;;13.13;;
20525;SDS011;10421;49.142;9.232;2023-05-21T02:13:12;25.60;;;14.13;;
20525;SDS011;10421;49.142;9.232;2023-05-21T02:15:40;18.20;;;11.70;;
20525;SDS011;10421;49.142;9.232;2023-05-21T02:18:07;18.83;;;13.00;;
20525;SDS011;10421;49.142;9.232;2023-05-21T02:20:33;21.90;;;13.47;;
20525;SDS011;10421;49.142;9.232;2023-05-21T02:23:00;17.93;;;11.97;;
20525;SDS011;10421;49.142;9.232;2023-05-21T02:25:27;20.83;;;12.33;;
20525;SDS011;10421;49.142;9.232;2023-05-21T02:27:53;23.27;;;13.57;;
20525;SDS011;10421;49.142;9.232;2023-05-21T02:30:22;20.40;;;12.70;;
20525;SDS011;10421;49.142;9.232;2023-05-21T02:32:48;20.63;;;11.90;;
20525;SDS011;10421;49.142;9.232;2023-05-21T02:35:15;20.00;;;12.37;;
20525;SDS011;10421;49.142;9.232;2023-05-21T02:37:42;19.90;;;12.40;;
20525;SDS011;10421;49.142;9.232;2023-05-21T02:40:09;21.83;;;13.30;;
20525;SDS011;10421;49.142;9.232;2023-05-21T02:42:36;25.93;;;13.23;;
20525;SDS011;10421;49.142;9.232;2023-05-21T02:45:04;22.90;;;13.50;;
20525;SDS011;10421;49.142;9.232;2023-05-21T02:47:33;21.60;;;13.70;;
20525;SDS011;10421;49.142;9.232;2023-05-21T02:50:00;21.90;;;12.43;;
20525;SDS011;10421;49.142;9.232;2023-05-21T02:52:27;20.40;;;12.87;;
20525;SDS011;10421;49.142;9.232;2023-05-21T02:54:53;17.87;;;12.07;;
20525;SDS011;10421;49.142;9.232;2023-05-21T02:57:20;23.10;;;13.60;;
20525;SDS011;10421;49.142;9.232;2023-05-21T02:59:47;19.37;;;12.20;;
20525;SDS011;10421;49.142;9.232;2023-05-21T03:02:13;19.00;;;12.27;;
20525;SDS011;10421;49.142;9.232;2023-05-21T03:04:41;19.23;;;12.17;;
20525;SDS011;10421;49.142;9.232;2023-05-21T03:07:10;22.70;;;12.93;;
20525;SDS011;10421;49.142;9.232;2023-05-21T03:09:38;22.73;;;12.83;;
20525;SDS011;10421;49.142;9.232;2023-05-21T03:12:05;19.53;;;12.63;;
20525;SDS011;10421;49.142;9.232;2023-05-21T03:14:31;20.07;;;12.50;;
20525;SDS011;10421;49.142;9.232;2023-05-21T03:16:59;20.40;;;12.10;;
20525;SDS011;10421;49.142;9.232;2023-05-21T03:19:27;18.13;;;11.90;;
20525;SDS011;10421;49.142;9.232;2023-05-21T03:21:55;24.13;;;13.53;;
20525;SDS011;10421;49.142;9.232;2023-05-21T03:24:22;23.73;;;13.27;;
20525;SDS011;10421;49.142;9.232;2023-05-21T03:26:49;22.27;;;13.37;;
20525;SDS011;10421;49.142;9.232;2023-05-21T03:29:15;20.40;;;11.97;;
20525;SDS011;10421;49.142;9.232;2023-05-21T03:31:42;17.90;;;11.90;;
20525;SDS011;10421;49.142;9.232;2023-05-21T03:34:09;20.07;;;13.50;;
20525;SDS011;10421;49.142;9.232;2023-05-21T03:36:35;21.77;;;13.27;;
20525;SDS011;10421;49.142;9.232;2023-05-21T03:39:03;20.70;;;12.20;;
20525;SDS011;10421;49.142;9.232;2023-05-21T03:41:30;23.50;;;13.83;;
20525;SDS011;10421;49.142;9.232;2023-05-21T03:43:57;22.57;;;13.63;;
20525;SDS011;10421;49.142;9.232;2023-05-21T03:46:24;20.93;;;12.23;;
20525;SDS011;10421;49.142;9.232;2023-05-21T03:48:51;23.20;;;13.20;;
20525;SDS011;10421;49.142;9.232;2023-05-21T03:51:18;25.10;;;13.40;;
20525;SDS011;10421;49.142;9.232;2023-05-21T03:53:45;19.80;;;11.10;;
20525;SDS011;10421;49.142;9.232;2023-05-21T03:56:13;24.90;;;14.77;;
20525;SDS011;10421;49.142;9.232;2023-05-21T03:58:40;20.67;;;12.63;;
20525;SDS011;10421;49.142;9.232;2023-05-21T04:01:06;20.87;;;12.40;;
20525;SDS011;10421;49.142;9.232;2023-05-21T04:03:34;26.77;;;12.70;;
20525;SDS011;10421;49.142;9.232;2023-05-21T04:06:01;20.53;;;13.13;;
20525;SDS011;10421;49.142;9.232;2023-05-21T04:08:28;20.53;;;12.37;;
20525;SDS011;10421;49.142;9.232;2023-05-21T04:10:56;21.17;;;11.97;;
20525;SDS011;10421;49.142;9.232;2023-05-21T04:13:24;20.87;;;11.87;;
20525;SDS011;10421;49.142;9.232;2023-05-21T04:15:52;22.00;;;13.37;;
20525;SDS011;10421;49.142;9.232;2023-05-21T04:18:19;21.47;;;12.70;;
20525;SDS011;10421;49.142;9.232;2023-05-21T04:20:47;20.93;;;13.20;;
20525;SDS011;10421;49.142;9.232;2023-05-21T04:23:14;24.30;;;14.13;;
20525;SDS011;10421;49.142;9.232;2023-05-21T04:25:41;20.37;;;12.17;;
20525;SDS011;10421;49.142;9.232;2023-05-21T04:28:08;19.40;;;11.70;;
20525;SDS011;10421;49.142;9.232;2023-05-21T04:30:36;20.97;;;12.90;;
20525;SDS011;10421;49.142;9.232;2023-05-21T04:33:03;20.97;;;12.57;;
20525;SDS011;10421;49.142;9.232;2023-05-21T04:35:29;20.17;;;11.60;;
20525;SDS011;10421;49.142;9.232;2023-05-21T04:37:56;20.03;;;12.43;;
20525;SDS011;10421;49.142;9.232;2023-05-21T04:40:23;24.40;;;12.83;;
20525;SDS011;10421;49.142;9.232;2023-05-21T04:42:49;17.53;;;11.93;;
20525;SDS011;10421;49.142;9.232;2023-05-21T04:45:16;21.97;;;12.40;;
20525;SDS011;10421;49.142;9.232;2023-05-21T04:47:44;22.23;;;13.00;;
20525;SDS011;10421;49.142;9.232;2023-05-21T04:50:11;25.50;;;13.73;;
20525;SDS011;10421;49.142;9.232;2023-05-21T04:52:38;20.87;;;12.30;;
20525;SDS011;10421;49.142;9.232;2023-05-21T04:55:05;19.30;;;11.73;;
20525;SDS011;10421;49.142;9.232;2023-05-21T04:57:32;17.73;;;10.93;;
20525;SDS011;10421;49.142;9.232;2023-05-21T04:59:59;20.30;;;12.30;;
20525;SDS011;10421;49.142;9.232;2023-05-21T05:02:27;19.20;;;11.10;;
20525;SDS011;10421;49.142;9.232;2023-05-21T05:04:55;17.23;;;11.07;;
20525;SDS011;10421;49.142;9.232;2023-05-21T05:07:23;16.10;;;10.37;;
20525;SDS011;10421;49.142;9.232;2023-05-21T05:09:50;18.20;;;11.67;;
20525;SDS011;10421;49.142;9.232;2023-05-21T05:12:17;18.90;;;11.13;;
20525;SDS011;10421;49.142;9.232;2023-05-21T05:14:43;19.20;;;12.10;;
20525;SDS011;10421;49.142;9.232;2023-05-21T05:17:10;16.33;;;10.93;;
20525;SDS011;10421;49.142;9.232;2023-05-21T05:19:39;18.00;;;11.10;;
20525;SDS011;10421;49.142;9.232;2023-05-21T05:22:07;17.63;;;11.50;;
20525;SDS011;10421;49.142;9.232;2023-05-21T05:24:34;15.97;;;10.80;;
20525;SDS011;10421;49.142;9.232;2023-05-21T05:27:00;23.87;;;13.60;;
20525;SDS011;10421;49.142;9.232;2023-05-21T05:29:27;17.80;;;12.10;;
20525;SDS011;10421;49.142;9.232;2023-05-21T05:31:54;18.03;;;11.10;;
20525;SDS011;10421;49.142;9.232;2023-05-21T05:34:21;19.90;;;12.70;;
20525;SDS011;10421;49.142;9.232;2023-05-21T05:36:47;14.67;;;9.80;;
20525;SDS011;10421;49.142;9.232;2023-05-21T05:39:15;22.30;;;12.50;;
20525;SDS011;10421;49.142;9.232;2023-05-21T05:41:42;20.27;;;12.17;;
20525;SDS011;10421;49.142;9.232;2023-05-21T05:44:09;18.17;;;11.60;;
20525;SDS011;10421;49.142;9.232;2023-05-21T05:46:36;18.40;;;11.90;;
20525;SDS011;10421;49.142;9.232;2023-05-21T05:49:02;21.90;;;12.43;;
20525;SDS011;10421;49.142;9.232;2023-05-21T05:51:29;17.60;;;10.33;;
20525;SDS011;10421;49.142;9.232;2023-05-21T05:53:56;17.20;;;11.07;;
20525;SDS011;10421;49.142;9.232;2023-05-21T05:56:24;18.30;;;12.10;;
20525;SDS011;10421;49.142;9.232;2023-05-21T05:58:51;20.57;;;12.13;;
20525;SDS011;10421;49.142;9.232;2023-05-21T06:01:18;15.87;;;10.47;;
20525;SDS011;10421;49.142;9.232;2023-05-21T06:03:48;15.90;;;10.53;;
20525;SDS011;10421;49.142;9.232;2023-05-21T06:06:15;17.50;;;11.10;;
20525;SDS011;10421;49.142;9.232;2023-05-21T06:08:42;22.67;;;13.80;;
20525;SDS011;10421;49.142;9.232;2023-05-21T06:11:09;19.37;;;11.77;;
20525;SDS011;10421;49.142;9.232;2023-05-21T06:13:37;18.13;;;11.47;;
20525;SDS011;10421;49.142;9.232;2023-05-21T06:16:04;17.73;;;10.93;;
20525;SDS011;10421;49.142;9.232;2023-05-21T06:18:31;18.97;;;11.90;;
20525;SDS011;10421;49.142;9.232;2023-05-21T06:20:58;15.50;;;10.03;;
20525;SDS011;10421;49.142;9.232;2023-05-21T06:23:25;13.70;;;10.00;;
20525;SDS011;10421;49.142;9.232;2023-05-21T06:25:52;19.57;;;11.83;;
20525;SDS011;10421;49.142;9.232;2023-05-21T06:28:18;20.17;;;11.60;;
20525;SDS011;10421;49.142;9.232;2023-05-21T06:30:46;17.33;;;11.40;;
20525;SDS011;10421;49.142;9.232;2023-05-21T06:33:13;23.70;;;11.73;;
20525;SDS011;10421;49.142;9.232;2023-05-21T06:35:40;16.07;;;11.07;;
20525;SDS011;10421;49.142;9.232;2023-05-21T06:38:07;16.63;;;9.93;;
20525;SDS011;10421;49.142;9.232;2023-05-21T06:40:33;16.23;;;11.10;;
20525;SDS011;10421;49.142;9.232;2023-05-21T06:43:00;15.20;;;10.53;;
20525;SDS011;10421;49.142;9.232;2023-05-21T06:45:29;16.47;;;10.57;;
20525;SDS011;10421;49.142;9.232;2023-05-21T06:47:57;15.53;;;10.10;;
20525;SDS011;10421;49.142;9.232;2023-05-21T06:50:24;22.13;;;12.00;;
20525;SDS011;10421;49.142;9.232;2023-05-21T06:52:51;15.60;;;10.37;;
20525;SDS011;10421;49.142;9.232;2023-05-21T06:55:17;16.53;;;10.37;;
20525;SDS011;10421;49.142;9.232;2023-05-21T06:57:44;15.37;;;10.47;;
20525;SDS011;10421;49.142;9.232;2023-05-21T07:00:11;17.40;;;10.13;;
20525;SDS011;10421;49.142;9.232;2023-05-21T07:02:38;16.00;;;10.23;;
20525;SDS011;10421;49.142;9.232;2023-05-21T07:05:07;13.73;;;9.03;;
20525;SDS011;10421;49.142;9.232;2023-05-21T07:07:34;14.87;;;9.50;;
20525;SDS011;10421;49.142;9.232;2023-05-21T07:10:01;16.77;;;10.50;;
20525;SDS011;10421;49.142;9.232;2023-05-21T07:12:28;15.83;;;10.10;;
20525;SDS011;10421;49.142;9.232;2023-05-21T07:14:55;23.93;;;12.80;;
20525;SDS011;10421;49.142;9.232;2023-05-21T07:17:22;15.60;;;10.00;;
20525;SDS011;10421;49.142;9.232;2023-05-21T07:19:49;18.07;;;10.87;;
20525;SDS011;10421;49.142;9.232;2023-05-21T07:22:17;15.90;;;10.60;;
20525;SDS011;10421;49.142;9.232;2023-05-21T07:24:43;16.30;;;9.47;;
20525;SDS011;10421;49.142;9.232;2023-05-21T07:27:10;16.47;;;9.70;;
20525;SDS011;10421;49.142;9.232;2023-05-21T07:29:37;18.63;;;11.03;;
20525;SDS011;10421;49.142;9.232;2023-05-21T08:45:18;14.60;;;9.00;;
20525;SDS011;10421;49.142;9.232;2023-05-21T08:47:47;14.87;;;8.90;;
20525;SDS011;10421;49.142;9.232;2023-05-21T08:50:19;9.30;;;7.43;;
20525;SDS011;10421;49.142;9.232;2023-05-21T08:52:48;10.70;;;7.90;;
20525;SDS011;10421;49.142;9.232;2023-05-21T08:55:15;13.03;;;8.53;;
20525;SDS011;10421;49.142;9.232;2023-05-21T08:57:42;10.27;;;7.13;;
20525;SDS011;10421;49.142;9.232;2023-05-21T09:00:10;8.50;;;6.90;;
20525;SDS011;10421;49.142;9.232;2023-05-21T09:02:39;10.77;;;7.80;;
20525;SDS011;10421;49.142;9.232;2023-05-21T09:05:08;11.17;;;8.30;;
20525;SDS011;10421;49.142;9.232;2023-05-21T09:07:37;11.40;;;7.40;;
20525;SDS011;10421;49.142;9.232;2023-05-21T09:10:10;10.90;;;7.33;;
20525;SDS011;10421;49.142;9.232;2023-05-21T09:12:38;8.87;;;7.03;;
20525;SDS011;10421;49.142;9.232;2023-05-21T09:15:05;10.03;;;7.63;;
20525;SDS011;10421;49.142;9.232;2023-05-21T09:17:32;12.07;;;7.50;;
20525;SDS011;10421;49.142;9.232;2023-05-21T09:20:11;12.80;;;9.70;;
20525;SDS011;10421;49.142;9.232;2023-05-21T09:22:40;13.97;;;9.90;;
20525;SDS011;10421;49.142;9.232;2023-05-21T09:25:08;18.37;;;11.67;;
20525;SDS011;10421;49.142;9.232;2023-05-21T09:27:36;21.90;;;14.00;;
20525;SDS011;10421;49.142;9.232;2023-05-21T09:30:09;15.87;;;10.00;;
20525;SDS011;10421;49.142;9.232;2023-05-21T09:32:37;33.80;;;26.07;;
20525;SDS011;10421;49.142;9.232;2023-05-21T09:35:05;23.80;;;17.40;;
20525;SDS011;10421;49.142;9.232;2023-05-21T09:37:36;13.47;;;9.50;;
20525;SDS011;10421;49.142;9.232;2023-05-21T09:40:10;14.43;;;9.27;;
20525;SDS011;10421;49.142;9.232;2023-05-21T09:42:39;10.70;;;7.80;;
20525;SDS011;10421;49.142;9.232;2023-05-21T09:45:07;11.00;;;8.10;;
20525;SDS011;10421;49.142;9.232;2023-05-21T09:47:39;9.83;;;7.10;;
20525;SDS011;10421;49.142;9.232;2023-05-21T09:52:36;12.30;;;8.23;;
20525;SDS011;10421;49.142;9.232;2023-05-21T09:55:03;12.80;;;8.40;;
20525;SDS011;10421;49.142;9.232;2023-05-21T09:57:31;10.50;;;7.70;;
20525;SDS011;10421;49.142;9.232;2023-05-21T09:59:58;12.20;;;8.27;;
20525;SDS011;10421;49.142;9.232;2023-05-21T10:02:24;11.83;;;7.87;;
20525;SDS011;10421;49.142;9.232;2023-05-21T10:04:51;9.87;;;7.50;;
20525;SDS011;10421;49.142;9.232;2023-05-21T10:07:20;8.10;;;6.50;;
20525;SDS011;10421;49.142;9.232;2023-05-21T10:09:52;9.30;;;7.23;;
20525;SDS011;10421;49.142;9.232;2023-05-21T10:12:23;9.00;;;6.80;;
20525;SDS011;10421;49.142;9.232;2023-05-21T10:14:50;9.20;;;6.93;;
20525;SDS011;10421;49.142;9.232;2023-05-21T10:17:23;10.47;;;7.00;;
20525;SDS011;10421;49.142;9.232;2023-05-21T10:19:51;9.90;;;7.60;;
20525;SDS011;10421;49.142;9.232;2023-05-21T10:22:21;13.47;;;9.93;;
20525;SDS011;10421;49.142;9.232;2023-05-21T10:24:50;14.33;;;9.60;;
20525;SDS011;10421;49.142;9.232;2023-05-21T10:27:17;11.90;;;8.00;;
20525;SDS011;10421;49.142;9.232;2023-05-21T10:29:45;11.20;;;7.50;;
20525;SDS011;10421;49.142;9.232;2023-05-21T10:32:14;10.07;;;7.40;;
20525;SDS011;10421;49.142;9.232;2023-05-21T10:34:41;9.83;;;7.27;;
20525;SDS011;10421;49.142;9.232;2023-05-21T10:37:08;12.53;;;6.97;;
20525;SDS011;10421;49.142;9.232;2023-05-21T10:39:38;9.27;;;6.80;;
20525;SDS011;10421;49.142;9.232;2023-05-21T10:42:16;9.43;;;6.30;;
20525;SDS011;10421;49.142;9.232;2023-05-21T10:44:54;12.40;;;7.60;;
20525;SDS011;10421;49.142;9.232;2023-05-21T10:47:46;14.20;;;8.83;;
20525;SDS011;10421;49.142;9.232;2023-05-21T10:50:34;8.67;;;6.37;;
20525;SDS011;10421;49.142;9.232;2023-05-21T10:53:20;10.93;;;7.47;;
20525;SDS011;10421;49.142;9.232;2023-05-21T10:55:58;9.37;;;6.83;;
20525;SDS011;10421;49.142;9.232;2023-05-21T10:58:53;11.23;;;6.70;;
20525;SDS011;10421;49.142;9.232;2023-05-21T11:01:33;10.60;;;7.30;;
20525;SDS011;10421;49.142;9.232;2023-05-21T11:04:02;16.43;;;7.07;;
20525;SDS011;10421;49.142;9.232;2023-05-21T11:06:29;10.97;;;7.63;;
20525;SDS011;10421;49.142;9.232;2023-05-21T11:08:56;9.30;;;6.83;;
20525;SDS011;10421;49.142;9.232;2023-05-21T11:11:40;15.53;;;7.23;;
20525;SDS011;10421;49.142;9.232;2023-05-21T11:14:29;11.00;;;7.40;;
20525;SDS011;10421;49.142;9.232;2023-05-21T11:16:59;8.60;;;6.80;;
20525;SDS011;10421;49.142;9.232;2023-05-21T11:19:33;12.20;;;8.03;;
20525;SDS011;10421;49.142;9.232;2023-05-21T11:22:04;11.00;;;8.13;;
20525;SDS011;10421;49.142;9.232;2023-05-21T11:24:33;9.80;;;6.77;;
20525;SDS011;10421;49.142;9.232;2023-05-21T11:27:02;8.73;;;6.90;;
20525;SDS011;10421;49.142;9.232;2023-05-21T11:29:41;10.67;;;7.23;;
20525;SDS011;10421;49.142;9.232;2023-05-21T11:32:10;9.67;;;7.00;;
20525;SDS011;10421;49.142;9.232;2023-05-21T11:34:39;8.27;;;6.57;;
20525;SDS011;10421;49.142;9.232;2023-05-21T11:39:55;8.67;;;6.90;;
20525;SDS011;10421;49.142;9.232;2023-05-21T11:42:26;8.40;;;5.90;;
20525;SDS011;10421;49.142;9.232;2023-05-21T11:44:56;11.13;;;7.50;;
20525;SDS011;10421;49.142;9.232;2023-05-21T11:47:23;12.27;;;7.93;;
20525;SDS011;10421;49.142;9.232;2023-05-21T11:49:51;8.80;;;6.60;;
20525;SDS011;10421;49.142;9.232;2023-05-21T11:52:18;12.90;;;7.77;;
20525;SDS011;10421;49.142;9.232;2023-05-21T11:54:46;10.23;;;7.20;;
20525;SDS011;10421;49.142;9.232;2023-05-21T11:57:14;8.80;;;7.00;;
20525;SDS011;10421;49.142;9.232;2023-05-21T11:59:43;8.80;;;6.80;;
20525;SDS011;10421;49.142;9.232;2023-05-21T12:02:14;14.10;;;8.67;;
20525;SDS011;10421;49.142;9.232;2023-05-21T12:04:41;12.10;;;7.50;;
20525;SDS011;10421;49.142;9.232;2023-05-21T12:07:10;13.10;;;8.00;;
20525;SDS011;10421;49.142;9.232;2023-05-21T12:09:39;9.87;;;7.20;;
20525;SDS011;10421;49.142;9.232;2023-05-21T12:12:06;12.13;;;7.93;;
20525;SDS011;10421;49.142;9.232;2023-05-21T12:14:35;14.17;;;7.97;;
20525;SDS011;10421;49.142;9.232;2023-05-21T12:17:02;11.93;;;8.07;;
20525;SDS011;10421;49.142;9.232;2023-05-21T12:19:32;11.00;;;7.97;;
20525;SDS011;10421;49.142;9.232;2023-05-21T12:22:00;10.47;;;7.40;;
20525;SDS011;10421;49.142;9.232;2023-05-21T12:24:28;9.90;;;7.30;;
20525;SDS011;10421;49.142;9.232;2023-05-21T12:26:55;8.13;;;6.57;;
20525;SDS011;10421;49.142;9.232;2023-05-21T12:29:23;10.17;;;7.70;;
20525;SDS011;10421;49.142;9.232;2023-05-21T12:31:51;10.20;;;7.40;;
20525;SDS011;10421;49.142;9.232;2023-05-21T12:37:04;10.50;;;7.30;;
20525;SDS011;10421;49.142;9.232;2023-05-21T12:39:32;13.17;;;7.60;;
20525;SDS011;10421;49.142;9.232;2023-05-21T12:41:58;10.57;;;7.10;;
20525;SDS011;10421;49.142;9.232;2023-05-21T12:44:28;12.40;;;8.13;;
20525;SDS011;10421;49.142;9.232;2023-05-21T12:46:56;10.57;;;7.23;;
20525;SDS011;10421;49.142;9.232;2023-05-21T12:49:30;11.90;;;7.80;;
20525;SDS011;10421;49.142;9.232;2023-05-21T12:52:02;10.20;;;7.33;;
20525;SDS011;10421;49.142;9.232;2023-05-21T12:54:33;9.90;;;7.20;;
20525;SDS011;10421;49.142;9.232;2023-05-21T12:57:07;13.77;;;7.20;;
20525;SDS011;10421;49.142;9.232;2023-05-21T13:02:22;8.23;;;6.73;;
20525;SDS011;10421;49.142;9.232;2023-05-21T13:04:53;8.60;;;6.80;;
20525;SDS011;10421;49.142;9.232;2023-05-21T13:07:22;8.83;;;7.70;;
20525;SDS011;10421;49.142;9.232;2023-05-21T13:09:50;10.40;;;7.40;;
20525;SDS011;10421;49.142;9.232;2023-05-21T13:12:17;10.77;;;6.93;;
20525;SDS011;10421;49.142;9.232;2023-05-21T13:14:46;16.30;;;9.20;;
20525;SDS011;10421;49.142;9.232;2023-05-21T13:17:13;9.57;;;6.63;;
20525;SDS011;10421;49.142;9.232;2023-05-21T13:19:40;8.73;;;6.73;;
20525;SDS011;10421;49.142;9.232;2023-05-21T13:22:06;7.77;;;6.57;;
20525;SDS011;10421;49.142;9.232;2023-05-21T13:24:35;9.70;;;7.10;;
20525;SDS011;10421;49.142;9.232;2023-05-21T13:27:03;9.03;;;7.17;;
20525;SDS011;10421;49.142;9.232;2023-05-21T13:29:30;9.90;;;6.80;;
20525;SDS011;10421;49.142;9.232;2023-05-21T13:31:58;8.50;;;7.00;;
20525;SDS011;10421;49.142;9.232;2023-05-21T13:34:24;8.37;;;5.73;;
20525;SDS011;10421;49.142;9.232;2023-05-21T13:36:51;10.30;;;7.57;;
20525;SDS011;10421;49.142;9.232;2023-05-21T13:39:18;7.40;;;5.90;;
20525;SDS011;10421;49.142;9.232;2023-05-21T13:41:51;7.70;;;6.33;;
20525;SDS011;10421;49.142;9.232;2023-05-21T13:44:18;7.10;;;6.30;;
20525;SDS011;10421;49.142;9.232;2023-05-21T13:46:45;10.00;;;7.20;;
20525;SDS011;10421;49.142;9.232;2023-05-21T13:49:12;11.23;;;7.10;;
20525;SDS011;10421;49.142;9.232;2023-05-21T13:51:39;9.00;;;6.43;;
20525;SDS011;10421;49.142;9.232;2023-05-21T13:54:06;10.93;;;6.87;;
20525;SDS011;10421;49.142;9.232;2023-05-21T13:56:32;8.80;;;6.60;;
20525;SDS011;10421;49.142;9.232;2023-05-21T13:59:00;9.97;;;6.07;;
20525;SDS011;10421;49.142;9.232;2023-05-21T14:01:27;12.00;;;7.40;;
20525;SDS011;10421;49.142;9.232;2023-05-21T14:03:55;10.73;;;7.30;;
20525;SDS011;10421;49.142;9.232;2023-05-21T14:06:22;9.93;;;7.30;;
20525;SDS011;10421;49.142;9.232;2023-05-21T14:08:48;9.90;;;6.90;;
20525;SDS011;10421;49.142;9.232;2023-05-21T14:11:15;7.80;;;6.13;;
20525;SDS011;10421;49.142;9.232;2023-05-21T14:13:42;13.00;;;7.70;;
20525;SDS011;10421;49.142;9.232;2023-05-21T14:16:10;9.20;;;6.80;;
20525;SDS011;10421;49.142;9.232;2023-05-21T14:18:36;10.97;;;6.60;;
20525;SDS011;10421;49.142;9.232;2023-05-21T14:21:03;9.23;;;6.80;;
20525;SDS011;10421;49.142;9.232;2023-05-21T14:23:30;9.23;;;6.20;;
20525;SDS011;10421;49.142;9.232;2023-05-21T14:25:57;11.53;;;6.60;;
20525;SDS011;10421;49.142;9.232;2023-05-21T14:28:23;7.87;;;6.17;;
20525;SDS011;10421;49.142;9.232;2023-05-21T14:30:50;12.33;;;7.70;;
20525;SDS011;10421;49.142;9.232;2023-05-21T14:33:18;8.43;;;6.97;;
20525;SDS011;10421;49.142;9.232;2023-05-21T14:35:45;11.70;;;7.17;;
20525;SDS011;10421;49.142;9.232;2023-05-21T14:38:11;10.27;;;7.00;;
20525;SDS011;10421;49.142;9.232;2023-05-21T14:40:38;12.73;;;7.77;;
20525;SDS011;10421;49.142;9.232;2023-05-21T14:43:05;10.80;;;7.70;;
20525;SDS011;10421;49.142;9.232;2023-05-21T14:45:32;10.60;;;7.43;;
20525;SDS011;10421;49.142;9.232;2023-05-21T14:47:59;12.23;;;8.10;;
20525;SDS011;10421;49.142;9.232;2023-05-21T14:50:28;10.67;;;7.60;;
20525;SDS011;10421;49.142;9.232;2023-05-21T14:52:55;10.27;;;7.83;;
20525;SDS011;10421;49.142;9.232;2023-05-21T14:55:22;10.43;;;7.20;;
20525;SDS011;10421;49.142;9.232;2023-05-21T14:57:49;8.83;;;6.50;;
20525;SDS011;10421;49.142;9.232;2023-05-21T15:00:16;9.60;;;7.67;;
20525;SDS011;10421;49.142;9.232;2023-05-21T15:02:42;11.90;;;7.90;;
20525;SDS011;10421;49.142;9.232;2023-05-21T15:05:09;8.20;;;6.57;;
20525;SDS011;10421;49.142;9.232;2023-05-21T15:07:37;11.53;;;8.63;;
20525;SDS011;10421;49.142;9.232;2023-05-21T15:10:04;9.60;;;7.87;;
20525;SDS011;10421;49.142;9.232;2023-05-21T15:12:32;10.07;;;7.23;;
20525;SDS011;10421;49.142;9.232;2023-05-21T15:14:58;10.17;;;7.93;;
20525;SDS011;10421;49.142;9.232;2023-05-21T15:17:25;14.30;;;10.00;;
20525;SDS011;10421;49.142;9.232;2023-05-21T15:19:52;10.40;;;7.80;;
20525;SDS011;10421;49.142;9.232;2023-05-21T15:22:19;11.83;;;8.43;;
20525;SDS011;10421;49.142;9.232;2023-05-21T15:24:47;12.70;;;8.77;;
20525;SDS011;10421;49.142;9.232;2023-05-21T15:27:13;9.37;;;8.13;;
20525;SDS011;10421;49.142;9.232;2023-05-21T15:29:40;10.17;;;7.80;;
20525;SDS011;10421;49.142;9.232;2023-05-21T15:32:08;9.93;;;7.77;;
20525;SDS011;10421;49.142;9.232;2023-05-21T15:34:34;11.87;;;8.53;;
20525;SDS011;10421;49.142;9.232;2023-05-21T15:37:01;12.10;;;8.53;;
20525;SDS011;10421;49.142;9.232;2023-05-21T15:39:28;11.90;;;7.70;;
20525;SDS011;10421;49.142;9.232;2023-05-21T15:41:56;13.50;;;9.03;;
20525;SDS011;10421;49.142;9.232;2023-05-21T15:44:23;14.10;;;10.00;;
20525;SDS011;10421;49.142;9.232;2023-05-21T15:46:50;22.07;;;17.27;;
20525;SDS011;10421;49.142;9.232;2023-05-21T15:49:18;26.30;;;18.63;;
20525;SDS011;10421;49.142;9.232;2023-05-21T15:51:45;19.77;;;14.03;;
20525;SDS011;10421;49.142;9.232;2023-05-21T15:54:13;27.63;;;21.70;;
20525;SDS011;10421;49.142;9.232;2023-05-21T15:56:40;19.27;;;13.63;;
20525;SDS011;10421;49.142;9.232;2023-05-21T15:59:09;24.40;;;16.87;;
20525;SDS011;10421;49.142;9.232;2023-05-21T16:01:36;18.70;;;12.43;;